sensor_id;sensor_type;location;lat;lon;timestamp;P1;durP1;ratioP1;P2;durP2;ratioP2
52534;SDS011;38443;53.164;5.802;2024-01-30T00:01:44;25.63;;;15.10;;
52534;SDS011;38443;53.164;5.802;2024-01-30T00:06:34;29.20;;;17.43;;
52534;SDS011;38443;53.164;5.802;2024-01-30T00:11:25;29.77;;;15.27;;
52534;SDS011;38443;53.164;5.802;2024-01-30T00:16:19;32.30;;;16.48;;
52534;SDS011;38443;53.164;5.802;2024-01-30T00:18:51;32.55;;;16.05;;
52534;SDS011;38443;53.164;5.802;2024-01-30T00:23:42;26.88;;;15.02;;
52534;SDS011;38443;53.164;5.802;2024-01-30T00:28:33;26.27;;;15.15;;
52534;SDS011;38443;53.164;5.802;2024-01-30T00:33:24;28.33;;;17.27;;
52534;SDS011;38443;53.164;5.802;2024-01-30T00:38:14;28.63;;;15.20;;
52534;SDS011;38443;53.164;5.802;2024-01-30T00:43:05;22.97;;;14.70;;
52534;SDS011;38443;53.164;5.802;2024-01-30T00:47:56;28.40;;;16.75;;
52534;SDS011;38443;53.164;5.802;2024-01-30T00:52:46;29.13;;;18.83;;
52534;SDS011;38443;53.164;5.802;2024-01-30T00:57:38;34.60;;;17.58;;
52534;SDS011;38443;53.164;5.802;2024-01-30T01:02:30;27.88;;;16.52;;
52534;SDS011;38443;53.164;5.802;2024-01-30T01:07:21;33.25;;;16.25;;
52534;SDS011;38443;53.164;5.802;2024-01-30T01:12:11;31.57;;;15.73;;
52534;SDS011;38443;53.164;5.802;2024-01-30T01:17:02;33.13;;;16.23;;
52534;SDS011;38443;53.164;5.802;2024-01-30T01:21:52;24.90;;;15.77;;
52534;SDS011;38443;53.164;5.802;2024-01-30T01:26:43;33.53;;;16.02;;
52534;SDS011;38443;53.164;5.802;2024-01-30T01:31:38;33.33;;;16.95;;
52534;SDS011;38443;53.164;5.802;2024-01-30T01:34:11;32.17;;;17.23;;
52534;SDS011;38443;53.164;5.802;2024-01-30T01:39:01;33.93;;;18.33;;
52534;SDS011;38443;53.164;5.802;2024-01-30T01:41:31;32.03;;;17.25;;
52534;SDS011;38443;53.164;5.802;2024-01-30T01:43:58;32.95;;;18.70;;
52534;SDS011;38443;53.164;5.802;2024-01-30T01:46:26;32.67;;;18.13;;
52534;SDS011;38443;53.164;5.802;2024-01-30T01:48:52;28.52;;;16.92;;
52534;SDS011;38443;53.164;5.802;2024-01-30T01:51:18;34.30;;;17.63;;
52534;SDS011;38443;53.164;5.802;2024-01-30T01:56:09;33.10;;;18.05;;
52534;SDS011;38443;53.164;5.802;2024-01-30T02:01:01;32.25;;;18.00;;
52534;SDS011;38443;53.164;5.802;2024-01-30T02:05:52;34.80;;;17.58;;
52534;SDS011;38443;53.164;5.802;2024-01-30T02:08:19;35.85;;;17.77;;
52534;SDS011;38443;53.164;5.802;2024-01-30T02:13:09;32.80;;;18.50;;
52534;SDS011;38443;53.164;5.802;2024-01-30T02:17:59;34.60;;;18.63;;
52534;SDS011;38443;53.164;5.802;2024-01-30T02:22:53;32.88;;;18.08;;
52534;SDS011;38443;53.164;5.802;2024-01-30T02:27:44;34.03;;;20.02;;
52534;SDS011;38443;53.164;5.802;2024-01-30T02:32:35;31.95;;;17.90;;
52534;SDS011;38443;53.164;5.802;2024-01-30T02:35:01;32.75;;;17.13;;
52534;SDS011;38443;53.164;5.802;2024-01-30T02:39:51;36.43;;;18.77;;
52534;SDS011;38443;53.164;5.802;2024-01-30T02:44:42;38.10;;;17.63;;
52534;SDS011;38443;53.164;5.802;2024-01-30T02:49:32;30.00;;;17.47;;
52534;SDS011;38443;53.164;5.802;2024-01-30T02:54:24;30.30;;;18.43;;
52534;SDS011;38443;53.164;5.802;2024-01-30T02:59:14;30.10;;;16.80;;
52534;SDS011;38443;53.164;5.802;2024-01-30T03:04:09;26.45;;;16.48;;
52534;SDS011;38443;53.164;5.802;2024-01-30T03:09:00;29.17;;;15.73;;
52534;SDS011;38443;53.164;5.802;2024-01-30T03:11:25;33.28;;;17.65;;
52534;SDS011;38443;53.164;5.802;2024-01-30T03:13:50;30.75;;;16.63;;
52534;SDS011;38443;53.164;5.802;2024-01-30T03:18:41;31.73;;;16.33;;
52534;SDS011;38443;53.164;5.802;2024-01-30T03:23:32;28.57;;;16.40;;
52534;SDS011;38443;53.164;5.802;2024-01-30T03:28:23;26.08;;;16.02;;
52534;SDS011;38443;53.164;5.802;2024-01-30T03:33:13;32.23;;;18.17;;
52534;SDS011;38443;53.164;5.802;2024-01-30T03:38:04;28.97;;;16.70;;
52534;SDS011;38443;53.164;5.802;2024-01-30T03:42:54;30.67;;;17.37;;
52534;SDS011;38443;53.164;5.802;2024-01-30T03:47:46;30.57;;;16.63;;
52534;SDS011;38443;53.164;5.802;2024-01-30T03:52:37;30.20;;;17.00;;
52534;SDS011;38443;53.164;5.802;2024-01-30T03:57:27;28.55;;;16.33;;
52534;SDS011;38443;53.164;5.802;2024-01-30T04:02:18;30.58;;;15.68;;
52534;SDS011;38443;53.164;5.802;2024-01-30T04:07:09;31.53;;;17.40;;
52534;SDS011;38443;53.164;5.802;2024-01-30T04:11:59;31.70;;;17.90;;
52534;SDS011;38443;53.164;5.802;2024-01-30T04:16:50;31.27;;;17.27;;
52534;SDS011;38443;53.164;5.802;2024-01-30T04:21:40;27.83;;;15.85;;
52534;SDS011;38443;53.164;5.802;2024-01-30T04:24:06;26.92;;;16.45;;
52534;SDS011;38443;53.164;5.802;2024-01-30T04:28:56;30.53;;;17.43;;
52534;SDS011;38443;53.164;5.802;2024-01-30T04:33:47;24.77;;;14.43;;
52534;SDS011;38443;53.164;5.802;2024-01-30T04:38:40;29.17;;;17.08;;
52534;SDS011;38443;53.164;5.802;2024-01-30T04:41:06;29.02;;;16.88;;
52534;SDS011;38443;53.164;5.802;2024-01-30T04:43:32;29.50;;;15.50;;
52534;SDS011;38443;53.164;5.802;2024-01-30T04:48:22;29.25;;;16.48;;
52534;SDS011;38443;53.164;5.802;2024-01-30T04:53:13;28.40;;;17.17;;
52534;SDS011;38443;53.164;5.802;2024-01-30T04:58:03;30.13;;;15.87;;
52534;SDS011;38443;53.164;5.802;2024-01-30T05:02:55;27.70;;;15.53;;
52534;SDS011;38443;53.164;5.802;2024-01-30T05:05:20;27.10;;;14.18;;
52534;SDS011;38443;53.164;5.802;2024-01-30T05:07:46;27.25;;;15.55;;
52534;SDS011;38443;53.164;5.802;2024-01-30T05:12:38;29.40;;;14.85;;
52534;SDS011;38443;53.164;5.802;2024-01-30T05:15:04;23.85;;;13.90;;
52534;SDS011;38443;53.164;5.802;2024-01-30T05:19:54;26.92;;;15.70;;
52534;SDS011;38443;53.164;5.802;2024-01-30T05:24:45;30.57;;;13.57;;
52534;SDS011;38443;53.164;5.802;2024-01-30T05:29:36;24.50;;;14.80;;
52534;SDS011;38443;53.164;5.802;2024-01-30T05:34:27;25.33;;;13.60;;
52534;SDS011;38443;53.164;5.802;2024-01-30T05:39:18;26.33;;;13.83;;
52534;SDS011;38443;53.164;5.802;2024-01-30T05:44:08;25.67;;;15.07;;
52534;SDS011;38443;53.164;5.802;2024-01-30T05:49:00;29.48;;;14.45;;
52534;SDS011;38443;53.164;5.802;2024-01-30T05:53:51;23.15;;;14.10;;
52534;SDS011;38443;53.164;5.802;2024-01-30T05:58:41;26.80;;;13.90;;
52534;SDS011;38443;53.164;5.802;2024-01-30T06:01:08;24.17;;;13.70;;
52534;SDS011;38443;53.164;5.802;2024-01-30T06:05:59;25.70;;;14.30;;
52534;SDS011;38443;53.164;5.802;2024-01-30T06:10:49;26.07;;;15.27;;
52534;SDS011;38443;53.164;5.802;2024-01-30T06:15:40;25.70;;;15.33;;
52534;SDS011;38443;53.164;5.802;2024-01-30T06:20:30;23.80;;;14.37;;
52534;SDS011;38443;53.164;5.802;2024-01-30T06:25:21;27.10;;;13.32;;
52534;SDS011;38443;53.164;5.802;2024-01-30T06:30:11;23.43;;;13.73;;
52534;SDS011;38443;53.164;5.802;2024-01-30T06:35:02;25.40;;;13.97;;
52534;SDS011;38443;53.164;5.802;2024-01-30T06:39:53;21.10;;;12.73;;
52534;SDS011;38443;53.164;5.802;2024-01-30T06:44:44;22.95;;;13.55;;
52534;SDS011;38443;53.164;5.802;2024-01-30T06:49:35;21.98;;;11.55;;
52534;SDS011;38443;53.164;5.802;2024-01-30T06:52:04;26.67;;;14.07;;
52534;SDS011;38443;53.164;5.802;2024-01-30T06:54:30;20.90;;;12.93;;
52534;SDS011;38443;53.164;5.802;2024-01-30T06:59:20;27.65;;;14.50;;
52534;SDS011;38443;53.164;5.802;2024-01-30T07:04:11;23.20;;;13.47;;
52534;SDS011;38443;53.164;5.802;2024-01-30T07:09:01;22.73;;;12.57;;
52534;SDS011;38443;53.164;5.802;2024-01-30T07:11:28;28.17;;;14.52;;
52534;SDS011;38443;53.164;5.802;2024-01-30T07:16:19;26.90;;;14.65;;
52534;SDS011;38443;53.164;5.802;2024-01-30T07:21:10;27.90;;;14.38;;
52534;SDS011;38443;53.164;5.802;2024-01-30T07:26:01;28.00;;;14.00;;
52534;SDS011;38443;53.164;5.802;2024-01-30T07:30:51;27.48;;;13.80;;
52534;SDS011;38443;53.164;5.802;2024-01-30T07:35:42;25.23;;;12.75;;
52534;SDS011;38443;53.164;5.802;2024-01-30T07:38:07;24.35;;;14.00;;
52534;SDS011;38443;53.164;5.802;2024-01-30T07:42:58;27.33;;;12.35;;
52534;SDS011;38443;53.164;5.802;2024-01-30T07:47:50;24.15;;;12.40;;
52534;SDS011;38443;53.164;5.802;2024-01-30T07:52:41;26.92;;;12.80;;
52534;SDS011;38443;53.164;5.802;2024-01-30T07:55:07;23.55;;;12.95;;
52534;SDS011;38443;53.164;5.802;2024-01-30T07:57:33;24.02;;;13.73;;
52534;SDS011;38443;53.164;5.802;2024-01-30T08:02:24;23.60;;;12.50;;
52534;SDS011;38443;53.164;5.802;2024-01-30T08:07:15;22.60;;;13.50;;
52534;SDS011;38443;53.164;5.802;2024-01-30T08:09:40;22.33;;;12.43;;
52534;SDS011;38443;53.164;5.802;2024-01-30T08:14:31;24.25;;;13.05;;
52534;SDS011;38443;53.164;5.802;2024-01-30T08:19:21;29.07;;;13.67;;
52534;SDS011;38443;53.164;5.802;2024-01-30T08:24:12;24.20;;;12.52;;
52534;SDS011;38443;53.164;5.802;2024-01-30T08:29:03;28.75;;;13.73;;
52534;SDS011;38443;53.164;5.802;2024-01-30T08:33:54;24.08;;;13.63;;
52534;SDS011;38443;53.164;5.802;2024-01-30T08:36:19;28.02;;;13.18;;
52534;SDS011;38443;53.164;5.802;2024-01-30T08:38:45;21.67;;;12.15;;
52534;SDS011;38443;53.164;5.802;2024-01-30T08:41:10;24.08;;;13.88;;
52534;SDS011;38443;53.164;5.802;2024-01-30T08:46:01;26.10;;;11.98;;
52534;SDS011;38443;53.164;5.802;2024-01-30T08:48:28;22.10;;;12.13;;
52534;SDS011;38443;53.164;5.802;2024-01-30T08:50:54;22.45;;;11.95;;
52534;SDS011;38443;53.164;5.802;2024-01-30T08:55:45;27.33;;;13.47;;
52534;SDS011;38443;53.164;5.802;2024-01-30T09:00:36;24.37;;;11.87;;
52534;SDS011;38443;53.164;5.802;2024-01-30T09:05:27;23.55;;;12.27;;
52534;SDS011;38443;53.164;5.802;2024-01-30T09:07:52;21.83;;;11.35;;
52534;SDS011;38443;53.164;5.802;2024-01-30T09:12:42;24.27;;;12.17;;
52534;SDS011;38443;53.164;5.802;2024-01-30T09:17:33;21.08;;;11.85;;
52534;SDS011;38443;53.164;5.802;2024-01-30T09:22:24;21.40;;;11.90;;
52534;SDS011;38443;53.164;5.802;2024-01-30T09:27:15;23.73;;;12.82;;
52534;SDS011;38443;53.164;5.802;2024-01-30T09:29:40;26.98;;;11.57;;
52534;SDS011;38443;53.164;5.802;2024-01-30T09:34:31;23.20;;;12.18;;
52534;SDS011;38443;53.164;5.802;2024-01-30T09:36:56;22.33;;;13.02;;
52534;SDS011;38443;53.164;5.802;2024-01-30T09:39:23;20.63;;;11.55;;
52534;SDS011;38443;53.164;5.802;2024-01-30T09:44:16;26.50;;;13.00;;
52534;SDS011;38443;53.164;5.802;2024-01-30T09:46:43;22.60;;;10.77;;
52534;SDS011;38443;53.164;5.802;2024-01-30T09:49:11;19.77;;;11.00;;
52534;SDS011;38443;53.164;5.802;2024-01-30T09:51:38;19.50;;;12.02;;
52534;SDS011;38443;53.164;5.802;2024-01-30T09:54:04;19.73;;;12.05;;
52534;SDS011;38443;53.164;5.802;2024-01-30T09:56:33;23.17;;;12.15;;
52534;SDS011;38443;53.164;5.802;2024-01-30T10:01:23;24.33;;;12.93;;
52534;SDS011;38443;53.164;5.802;2024-01-30T10:03:50;21.52;;;11.88;;
52534;SDS011;38443;53.164;5.802;2024-01-30T10:06:17;16.77;;;10.50;;
52534;SDS011;38443;53.164;5.802;2024-01-30T10:08:43;19.20;;;11.93;;
52534;SDS011;38443;53.164;5.802;2024-01-30T10:13:34;18.30;;;10.50;;
52534;SDS011;38443;53.164;5.802;2024-01-30T10:20:52;17.92;;;10.20;;
52534;SDS011;38443;53.164;5.802;2024-01-30T10:25:44;16.35;;;9.32;;
52534;SDS011;38443;53.164;5.802;2024-01-30T10:30:35;16.87;;;8.97;;
52534;SDS011;38443;53.164;5.802;2024-01-30T10:35:25;12.57;;;7.28;;
52534;SDS011;38443;53.164;5.802;2024-01-30T10:40:17;10.55;;;5.60;;
52534;SDS011;38443;53.164;5.802;2024-01-30T10:42:46;14.38;;;5.90;;
52534;SDS011;38443;53.164;5.802;2024-01-30T10:45:13;10.32;;;5.43;;
52534;SDS011;38443;53.164;5.802;2024-01-30T10:47:42;10.75;;;4.20;;
52534;SDS011;38443;53.164;5.802;2024-01-30T10:50:09;8.43;;;4.10;;
52534;SDS011;38443;53.164;5.802;2024-01-30T10:52:35;10.27;;;3.53;;
52534;SDS011;38443;53.164;5.802;2024-01-30T10:55:01;3.08;;;2.65;;
52534;SDS011;38443;53.164;5.802;2024-01-30T10:57:30;6.65;;;2.80;;
52534;SDS011;38443;53.164;5.802;2024-01-30T11:00:00;6.03;;;2.90;;
52534;SDS011;38443;53.164;5.802;2024-01-30T11:02:30;5.70;;;2.65;;
52534;SDS011;38443;53.164;5.802;2024-01-30T11:04:57;5.65;;;3.35;;
52534;SDS011;38443;53.164;5.802;2024-01-30T11:07:24;3.95;;;2.30;;
52534;SDS011;38443;53.164;5.802;2024-01-30T11:09:51;4.07;;;2.63;;
52534;SDS011;38443;53.164;5.802;2024-01-30T11:12:21;3.85;;;2.17;;
52534;SDS011;38443;53.164;5.802;2024-01-30T11:14:48;4.97;;;2.78;;
52534;SDS011;38443;53.164;5.802;2024-01-30T11:19:38;7.40;;;2.77;;
52534;SDS011;38443;53.164;5.802;2024-01-30T11:22:07;3.53;;;2.45;;
52534;SDS011;38443;53.164;5.802;2024-01-30T11:27:07;5.72;;;2.75;;
52534;SDS011;38443;53.164;5.802;2024-01-30T11:29:35;9.02;;;2.90;;
52534;SDS011;38443;53.164;5.802;2024-01-30T11:34:26;9.03;;;3.30;;
52534;SDS011;38443;53.164;5.802;2024-01-30T11:39:20;8.07;;;3.75;;
52534;SDS011;38443;53.164;5.802;2024-01-30T11:44:12;3.53;;;2.75;;
52534;SDS011;38443;53.164;5.802;2024-01-30T11:46:38;6.47;;;3.45;;
52534;SDS011;38443;53.164;5.802;2024-01-30T11:49:04;6.35;;;2.70;;
52534;SDS011;38443;53.164;5.802;2024-01-30T11:53:56;8.27;;;3.58;;
52534;SDS011;38443;53.164;5.802;2024-01-30T11:56:23;5.10;;;2.75;;
52534;SDS011;38443;53.164;5.802;2024-01-30T11:58:49;7.35;;;3.40;;
52534;SDS011;38443;53.164;5.802;2024-01-30T12:03:41;7.25;;;2.72;;
52534;SDS011;38443;53.164;5.802;2024-01-30T12:06:07;5.80;;;2.50;;
52534;SDS011;38443;53.164;5.802;2024-01-30T12:08:32;7.75;;;2.55;;
52534;SDS011;38443;53.164;5.802;2024-01-30T12:10:57;6.75;;;2.75;;
52534;SDS011;38443;53.164;5.802;2024-01-30T12:13:27;5.85;;;2.67;;
52534;SDS011;38443;53.164;5.802;2024-01-30T12:15:53;3.33;;;2.20;;
52534;SDS011;38443;53.164;5.802;2024-01-30T12:20:45;5.57;;;2.95;;
52534;SDS011;38443;53.164;5.802;2024-01-30T12:23:11;3.70;;;2.20;;
52534;SDS011;38443;53.164;5.802;2024-01-30T12:25:37;4.53;;;3.17;;
52534;SDS011;38443;53.164;5.802;2024-01-30T12:28:03;5.30;;;3.13;;
52534;SDS011;38443;53.164;5.802;2024-01-30T12:32:54;4.97;;;2.80;;
52534;SDS011;38443;53.164;5.802;2024-01-30T12:35:19;5.30;;;3.00;;
52534;SDS011;38443;53.164;5.802;2024-01-30T12:37:46;3.65;;;3.10;;
52534;SDS011;38443;53.164;5.802;2024-01-30T12:40:13;6.18;;;2.95;;
52534;SDS011;38443;53.164;5.802;2024-01-30T12:42:40;5.45;;;3.15;;
52534;SDS011;38443;53.164;5.802;2024-01-30T12:45:07;5.00;;;2.88;;
52534;SDS011;38443;53.164;5.802;2024-01-30T12:49:57;6.13;;;3.00;;
52534;SDS011;38443;53.164;5.802;2024-01-30T12:52:23;6.88;;;3.08;;
52534;SDS011;38443;53.164;5.802;2024-01-30T12:54:49;5.45;;;3.13;;
52534;SDS011;38443;53.164;5.802;2024-01-30T12:57:15;6.38;;;3.00;;
52534;SDS011;38443;53.164;5.802;2024-01-30T12:59:41;5.05;;;2.78;;
52534;SDS011;38443;53.164;5.802;2024-01-30T13:04:32;4.82;;;2.80;;
52534;SDS011;38443;53.164;5.802;2024-01-30T13:09:23;5.35;;;2.95;;
52534;SDS011;38443;53.164;5.802;2024-01-30T13:11:49;3.95;;;2.85;;
52534;SDS011;38443;53.164;5.802;2024-01-30T13:14:16;4.38;;;2.80;;
52534;SDS011;38443;53.164;5.802;2024-01-30T13:19:06;5.60;;;2.85;;
52534;SDS011;38443;53.164;5.802;2024-01-30T13:21:32;7.47;;;3.20;;
52534;SDS011;38443;53.164;5.802;2024-01-30T13:23:57;12.02;;;5.45;;
52534;SDS011;38443;53.164;5.802;2024-01-30T13:28:48;7.20;;;3.70;;
52534;SDS011;38443;53.164;5.802;2024-01-30T13:33:41;7.43;;;3.70;;
52534;SDS011;38443;53.164;5.802;2024-01-30T13:38:33;5.05;;;3.40;;
52534;SDS011;38443;53.164;5.802;2024-01-30T13:40:58;7.55;;;5.63;;
52534;SDS011;38443;53.164;5.802;2024-01-30T13:43:24;7.30;;;4.10;;
52534;SDS011;38443;53.164;5.802;2024-01-30T13:48:15;8.25;;;4.30;;
52534;SDS011;38443;53.164;5.802;2024-01-30T13:50:40;5.22;;;3.40;;
52534;SDS011;38443;53.164;5.802;2024-01-30T13:53:05;6.00;;;3.63;;
52534;SDS011;38443;53.164;5.802;2024-01-30T13:55:31;7.60;;;4.05;;
52534;SDS011;38443;53.164;5.802;2024-01-30T13:57:56;8.75;;;4.10;;
52534;SDS011;38443;53.164;5.802;2024-01-30T14:00:22;8.13;;;3.70;;
52534;SDS011;38443;53.164;5.802;2024-01-30T14:02:48;5.75;;;3.72;;
52534;SDS011;38443;53.164;5.802;2024-01-30T14:07:39;4.85;;;3.80;;
52534;SDS011;38443;53.164;5.802;2024-01-30T14:10:05;7.43;;;3.78;;
52534;SDS011;38443;53.164;5.802;2024-01-30T14:14:56;6.53;;;3.08;;
52534;SDS011;38443;53.164;5.802;2024-01-30T14:19:47;6.03;;;3.53;;
52534;SDS011;38443;53.164;5.802;2024-01-30T14:24:38;5.85;;;2.88;;
52534;SDS011;38443;53.164;5.802;2024-01-30T14:29:28;4.88;;;3.08;;
52534;SDS011;38443;53.164;5.802;2024-01-30T14:34:20;4.72;;;3.40;;
52534;SDS011;38443;53.164;5.802;2024-01-30T14:39:11;6.18;;;3.10;;
52534;SDS011;38443;53.164;5.802;2024-01-30T14:44:01;6.20;;;3.17;;
52534;SDS011;38443;53.164;5.802;2024-01-30T14:48:53;5.35;;;2.95;;
52534;SDS011;38443;53.164;5.802;2024-01-30T14:51:19;5.47;;;3.10;;
52534;SDS011;38443;53.164;5.802;2024-01-30T14:56:09;5.03;;;2.90;;
52534;SDS011;38443;53.164;5.802;2024-01-30T15:01:00;7.97;;;3.08;;
52534;SDS011;38443;53.164;5.802;2024-01-30T15:03:27;3.50;;;2.75;;
52534;SDS011;38443;53.164;5.802;2024-01-30T15:05:53;6.00;;;2.58;;
52534;SDS011;38443;53.164;5.802;2024-01-30T15:08:19;6.63;;;3.70;;
52534;SDS011;38443;53.164;5.802;2024-01-30T15:13:10;5.23;;;3.00;;
52534;SDS011;38443;53.164;5.802;2024-01-30T15:15:36;7.32;;;3.38;;
52534;SDS011;38443;53.164;5.802;2024-01-30T15:20:28;8.25;;;4.32;;
52534;SDS011;38443;53.164;5.802;2024-01-30T15:25:18;9.67;;;4.97;;
52534;SDS011;38443;53.164;5.802;2024-01-30T15:30:09;14.63;;;5.30;;
52534;SDS011;38443;53.164;5.802;2024-01-30T15:32:37;13.60;;;5.72;;
52534;SDS011;38443;53.164;5.802;2024-01-30T15:37:29;15.65;;;5.32;;
52534;SDS011;38443;53.164;5.802;2024-01-30T15:42:19;12.35;;;5.65;;
52534;SDS011;38443;53.164;5.802;2024-01-30T15:44:45;12.48;;;4.90;;
52534;SDS011;38443;53.164;5.802;2024-01-30T15:47:10;13.13;;;5.13;;
52534;SDS011;38443;53.164;5.802;2024-01-30T15:49:35;10.82;;;4.43;;
52534;SDS011;38443;53.164;5.802;2024-01-30T15:52:01;10.05;;;5.38;;
52534;SDS011;38443;53.164;5.802;2024-01-30T15:54:26;10.55;;;5.35;;
52534;SDS011;38443;53.164;5.802;2024-01-30T15:56:51;11.55;;;4.72;;
52534;SDS011;38443;53.164;5.802;2024-01-30T15:59:17;8.98;;;3.80;;
52534;SDS011;38443;53.164;5.802;2024-01-30T16:04:12;7.75;;;3.30;;
52534;SDS011;38443;53.164;5.802;2024-01-30T16:09:03;7.33;;;3.93;;
52534;SDS011;38443;53.164;5.802;2024-01-30T16:13:57;11.50;;;3.60;;
52534;SDS011;38443;53.164;5.802;2024-01-30T16:18:47;11.77;;;3.42;;
52534;SDS011;38443;53.164;5.802;2024-01-30T16:23:39;11.00;;;4.28;;
52534;SDS011;38443;53.164;5.802;2024-01-30T16:29:05;11.02;;;3.55;;
52534;SDS011;38443;53.164;5.802;2024-01-30T16:32:11;14.30;;;3.83;;
52534;SDS011;38443;53.164;5.802;2024-01-30T16:34:36;11.13;;;4.00;;
52534;SDS011;38443;53.164;5.802;2024-01-30T16:39:27;9.77;;;4.10;;
52534;SDS011;38443;53.164;5.802;2024-01-30T16:41:53;9.77;;;4.35;;
52534;SDS011;38443;53.164;5.802;2024-01-30T16:44:18;16.92;;;4.20;;
52534;SDS011;38443;53.164;5.802;2024-01-30T16:49:09;11.30;;;3.95;;
52534;SDS011;38443;53.164;5.802;2024-01-30T16:51:35;13.48;;;5.22;;
52534;SDS011;38443;53.164;5.802;2024-01-30T16:56:26;8.95;;;3.90;;
52534;SDS011;38443;53.164;5.802;2024-01-30T16:58:51;14.85;;;3.22;;
52534;SDS011;38443;53.164;5.802;2024-01-30T17:03:42;7.80;;;3.17;;
52534;SDS011;38443;53.164;5.802;2024-01-30T17:06:12;10.57;;;3.40;;
52534;SDS011;38443;53.164;5.802;2024-01-30T17:08:38;9.35;;;3.58;;
52534;SDS011;38443;53.164;5.802;2024-01-30T17:13:28;14.57;;;3.00;;
52534;SDS011;38443;53.164;5.802;2024-01-30T17:15:54;11.35;;;2.83;;
52534;SDS011;38443;53.164;5.802;2024-01-30T17:20:44;11.35;;;3.40;;
52534;SDS011;38443;53.164;5.802;2024-01-30T17:25:36;14.70;;;3.53;;
52534;SDS011;38443;53.164;5.802;2024-01-30T17:28:01;9.18;;;3.20;;
52534;SDS011;38443;53.164;5.802;2024-01-30T17:32:53;13.95;;;3.25;;
52534;SDS011;38443;53.164;5.802;2024-01-30T17:35:18;10.07;;;2.70;;
52534;SDS011;38443;53.164;5.802;2024-01-30T17:40:09;9.18;;;3.47;;
52534;SDS011;38443;53.164;5.802;2024-01-30T17:45:00;9.82;;;2.95;;
52534;SDS011;38443;53.164;5.802;2024-01-30T17:47:27;8.32;;;3.55;;
52534;SDS011;38443;53.164;5.802;2024-01-30T17:52:18;12.73;;;4.18;;
52534;SDS011;38443;53.164;5.802;2024-01-30T17:54:43;12.13;;;2.90;;
52534;SDS011;38443;53.164;5.802;2024-01-30T17:59:34;11.60;;;3.45;;
52534;SDS011;38443;53.164;5.802;2024-01-30T18:02:00;12.05;;;3.33;;
52534;SDS011;38443;53.164;5.802;2024-01-30T18:06:51;7.78;;;2.75;;
52534;SDS011;38443;53.164;5.802;2024-01-30T18:09:21;17.25;;;3.80;;
52534;SDS011;38443;53.164;5.802;2024-01-30T18:11:48;9.68;;;3.22;;
52534;SDS011;38443;53.164;5.802;2024-01-30T18:16:39;14.23;;;3.03;;
52534;SDS011;38443;53.164;5.802;2024-01-30T18:19:05;9.68;;;2.90;;
52534;SDS011;38443;53.164;5.802;2024-01-30T18:23:55;9.25;;;3.25;;
52534;SDS011;38443;53.164;5.802;2024-01-30T18:28:46;9.43;;;3.72;;
52534;SDS011;38443;53.164;5.802;2024-01-30T18:31:12;15.35;;;3.58;;
52534;SDS011;38443;53.164;5.802;2024-01-30T18:36:05;13.60;;;3.55;;
52534;SDS011;38443;53.164;5.802;2024-01-30T18:38:31;12.95;;;3.78;;
52534;SDS011;38443;53.164;5.802;2024-01-30T18:43:21;15.23;;;4.73;;
52534;SDS011;38443;53.164;5.802;2024-01-30T18:48:20;18.75;;;5.47;;
52534;SDS011;38443;53.164;5.802;2024-01-30T18:53:11;14.73;;;3.90;;
52534;SDS011;38443;53.164;5.802;2024-01-30T18:58:03;10.48;;;3.85;;
52534;SDS011;38443;53.164;5.802;2024-01-30T19:00:31;11.82;;;3.50;;
52534;SDS011;38443;53.164;5.802;2024-01-30T19:02:58;12.10;;;2.55;;
52534;SDS011;38443;53.164;5.802;2024-01-30T19:07:49;10.52;;;2.60;;
52534;SDS011;38443;53.164;5.802;2024-01-30T19:12:40;5.97;;;2.42;;
52534;SDS011;38443;53.164;5.802;2024-01-30T19:15:07;7.40;;;2.38;;
52534;SDS011;38443;53.164;5.802;2024-01-30T19:17:34;6.32;;;2.40;;
52534;SDS011;38443;53.164;5.802;2024-01-30T19:20:00;9.02;;;2.58;;
52534;SDS011;38443;53.164;5.802;2024-01-30T19:24:51;7.17;;;2.77;;
52534;SDS011;38443;53.164;5.802;2024-01-30T19:29:41;4.47;;;2.33;;
52534;SDS011;38443;53.164;5.802;2024-01-30T19:34:32;4.83;;;1.80;;
52534;SDS011;38443;53.164;5.802;2024-01-30T19:39:23;4.93;;;1.80;;
52534;SDS011;38443;53.164;5.802;2024-01-30T19:44:14;2.22;;;1.45;;
52534;SDS011;38443;53.164;5.802;2024-01-30T19:46:39;5.07;;;1.60;;
52534;SDS011;38443;53.164;5.802;2024-01-30T19:51:30;4.28;;;1.85;;
52534;SDS011;38443;53.164;5.802;2024-01-30T19:56:20;3.00;;;1.60;;
52534;SDS011;38443;53.164;5.802;2024-01-30T19:58:47;4.82;;;2.25;;
52534;SDS011;38443;53.164;5.802;2024-01-30T20:03:37;3.47;;;1.48;;
52534;SDS011;38443;53.164;5.802;2024-01-30T20:06:04;4.45;;;1.80;;
52534;SDS011;38443;53.164;5.802;2024-01-30T20:10:58;4.47;;;1.98;;
52534;SDS011;38443;53.164;5.802;2024-01-30T20:15:49;3.75;;;2.22;;
52534;SDS011;38443;53.164;5.802;2024-01-30T20:20:40;5.85;;;2.13;;
52534;SDS011;38443;53.164;5.802;2024-01-30T20:25:31;1.52;;;1.40;;
52534;SDS011;38443;53.164;5.802;2024-01-30T20:30:21;2.42;;;1.52;;
52534;SDS011;38443;53.164;5.802;2024-01-30T20:35:13;3.03;;;1.73;;
52534;SDS011;38443;53.164;5.802;2024-01-30T20:37:39;3.78;;;2.00;;
52534;SDS011;38443;53.164;5.802;2024-01-30T20:42:30;3.90;;;1.70;;
52534;SDS011;38443;53.164;5.802;2024-01-30T20:47:21;7.40;;;1.90;;
52534;SDS011;38443;53.164;5.802;2024-01-30T20:49:47;5.15;;;2.08;;
52534;SDS011;38443;53.164;5.802;2024-01-30T20:54:38;6.45;;;2.17;;
52534;SDS011;38443;53.164;5.802;2024-01-30T20:59:28;6.45;;;1.95;;
52534;SDS011;38443;53.164;5.802;2024-01-30T21:04:19;5.57;;;2.07;;
52534;SDS011;38443;53.164;5.802;2024-01-30T21:09:09;6.90;;;2.07;;
52534;SDS011;38443;53.164;5.802;2024-01-30T21:14:00;2.40;;;1.52;;
52534;SDS011;38443;53.164;5.802;2024-01-30T21:18:51;6.03;;;1.75;;
52534;SDS011;38443;53.164;5.802;2024-01-30T21:23:42;5.10;;;1.73;;
52534;SDS011;38443;53.164;5.802;2024-01-30T21:26:09;3.78;;;1.42;;
52534;SDS011;38443;53.164;5.802;2024-01-30T21:31:00;7.13;;;1.42;;
52534;SDS011;38443;53.164;5.802;2024-01-30T21:33:31;1.92;;;1.60;;
52534;SDS011;38443;53.164;5.802;2024-01-30T21:38:21;2.83;;;2.20;;
52534;SDS011;38443;53.164;5.802;2024-01-30T21:43:12;3.53;;;1.43;;
52534;SDS011;38443;53.164;5.802;2024-01-30T21:48:04;6.88;;;2.10;;
52534;SDS011;38443;53.164;5.802;2024-01-30T21:50:31;8.82;;;2.15;;
52534;SDS011;38443;53.164;5.802;2024-01-30T21:55:22;11.83;;;2.53;;
52534;SDS011;38443;53.164;5.802;2024-01-30T22:00:12;7.60;;;2.03;;
52534;SDS011;38443;53.164;5.802;2024-01-30T22:05:04;8.63;;;2.17;;
52534;SDS011;38443;53.164;5.802;2024-01-30T22:07:29;3.65;;;1.67;;
52534;SDS011;38443;53.164;5.802;2024-01-30T22:12:20;4.40;;;1.70;;
52534;SDS011;38443;53.164;5.802;2024-01-30T22:17:10;3.50;;;1.63;;
52534;SDS011;38443;53.164;5.802;2024-01-30T22:22:01;4.67;;;1.70;;
52534;SDS011;38443;53.164;5.802;2024-01-30T22:24:28;4.70;;;2.00;;
52534;SDS011;38443;53.164;5.802;2024-01-30T22:29:19;3.47;;;1.73;;
52534;SDS011;38443;53.164;5.802;2024-01-30T22:34:10;3.47;;;2.40;;
52534;SDS011;38443;53.164;5.802;2024-01-30T22:39:03;11.63;;;2.50;;
52534;SDS011;38443;53.164;5.802;2024-01-30T22:41:33;6.10;;;2.00;;
52534;SDS011;38443;53.164;5.802;2024-01-30T22:46:24;6.22;;;2.08;;
52534;SDS011;38443;53.164;5.802;2024-01-30T22:51:17;5.45;;;2.10;;
52534;SDS011;38443;53.164;5.802;2024-01-30T22:53:45;5.97;;;1.92;;
52534;SDS011;38443;53.164;5.802;2024-01-30T22:56:12;4.13;;;2.45;;
52534;SDS011;38443;53.164;5.802;2024-01-30T23:01:03;13.65;;;2.20;;
52534;SDS011;38443;53.164;5.802;2024-01-30T23:03:29;7.65;;;1.88;;
52534;SDS011;38443;53.164;5.802;2024-01-30T23:05:54;5.95;;;2.17;;